sensor_id;sensor_type;location;lat;lon;timestamp;P1;durP1;ratioP1;P2;durP2;ratioP2
60726;SDS011;46577;49.004;12.120;2023-06-22T00:01:09;13.07;;;9.90;;
60726;SDS011;46577;49.004;12.120;2023-06-22T00:03:35;15.53;;;10.70;;
60726;SDS011;46577;49.004;12.120;2023-06-22T00:06:01;22.90;;;10.57;;
60726;SDS011;46577;49.004;12.120;2023-06-22T00:08:27;19.80;;;11.43;;
60726;SDS011;46577;49.004;12.120;2023-06-22T00:10:53;15.33;;;10.63;;
60726;SDS011;46577;49.004;12.120;2023-06-22T00:13:19;15.63;;;10.60;;
60726;SDS011;46577;49.004;12.120;2023-06-22T00:15:45;25.50;;;11.50;;
60726;SDS011;46577;49.004;12.120;2023-06-22T00:18:11;22.43;;;12.60;;
60726;SDS011;46577;49.004;12.120;2023-06-22T00:20:38;17.30;;;12.27;;
60726;SDS011;46577;49.004;12.120;2023-06-22T00:23:04;17.33;;;12.40;;
60726;SDS011;46577;49.004;12.120;2023-06-22T00:25:34;15.40;;;11.07;;
60726;SDS011;46577;49.004;12.120;2023-06-22T00:28:01;19.63;;;12.00;;
60726;SDS011;46577;49.004;12.120;2023-06-22T00:30:27;15.13;;;11.47;;
60726;SDS011;46577;49.004;12.120;2023-06-22T00:32:53;18.27;;;12.00;;
60726;SDS011;46577;49.004;12.120;2023-06-22T00:35:19;17.70;;;11.80;;
60726;SDS011;46577;49.004;12.120;2023-06-22T00:37:45;21.67;;;13.00;;
60726;SDS011;46577;49.004;12.120;2023-06-22T00:40:11;28.27;;;12.70;;
60726;SDS011;46577;49.004;12.120;2023-06-22T00:42:39;18.93;;;12.73;;
60726;SDS011;46577;49.004;12.120;2023-06-22T00:45:05;22.37;;;12.87;;
60726;SDS011;46577;49.004;12.120;2023-06-22T00:47:32;24.33;;;12.87;;
60726;SDS011;46577;49.004;12.120;2023-06-22T00:49:59;32.67;;;12.00;;
60726;SDS011;46577;49.004;12.120;2023-06-22T00:52:25;21.87;;;11.70;;
60726;SDS011;46577;49.004;12.120;2023-06-22T00:54:54;15.67;;;11.50;;
60726;SDS011;46577;49.004;12.120;2023-06-22T00:57:21;22.33;;;11.63;;
60726;SDS011;46577;49.004;12.120;2023-06-22T00:59:48;16.40;;;12.43;;
60726;SDS011;46577;49.004;12.120;2023-06-22T01:02:14;14.90;;;12.33;;
60726;SDS011;46577;49.004;12.120;2023-06-22T01:04:40;18.87;;;12.50;;
60726;SDS011;46577;49.004;12.120;2023-06-22T01:09:47;15.50;;;11.40;;
60726;SDS011;46577;49.004;12.120;2023-06-22T01:12:15;14.20;;;11.33;;
60726;SDS011;46577;49.004;12.120;2023-06-22T01:14:43;22.80;;;11.93;;
60726;SDS011;46577;49.004;12.120;2023-06-22T01:17:11;17.60;;;11.17;;
60726;SDS011;46577;49.004;12.120;2023-06-22T01:19:44;28.00;;;14.27;;
60726;SDS011;46577;49.004;12.120;2023-06-22T01:22:19;19.40;;;12.00;;
60726;SDS011;46577;49.004;12.120;2023-06-22T01:25:09;23.53;;;12.50;;
60726;SDS011;46577;49.004;12.120;2023-06-22T01:27:36;18.03;;;12.43;;
60726;SDS011;46577;49.004;12.120;2023-06-22T01:30:10;20.60;;;13.10;;
60726;SDS011;46577;49.004;12.120;2023-06-22T01:32:37;25.47;;;13.40;;
60726;SDS011;46577;49.004;12.120;2023-06-22T01:35:04;18.93;;;12.40;;
60726;SDS011;46577;49.004;12.120;2023-06-22T01:37:31;28.73;;;12.50;;
60726;SDS011;46577;49.004;12.120;2023-06-22T01:39:58;21.53;;;12.63;;
60726;SDS011;46577;49.004;12.120;2023-06-22T01:42:24;20.27;;;13.73;;
60726;SDS011;46577;49.004;12.120;2023-06-22T01:44:52;17.87;;;13.07;;
60726;SDS011;46577;49.004;12.120;2023-06-22T01:47:19;17.30;;;12.33;;
60726;SDS011;46577;49.004;12.120;2023-06-22T01:49:45;18.10;;;12.77;;
60726;SDS011;46577;49.004;12.120;2023-06-22T01:52:12;20.27;;;12.83;;
60726;SDS011;46577;49.004;12.120;2023-06-22T01:54:39;26.07;;;14.40;;
60726;SDS011;46577;49.004;12.120;2023-06-22T01:57:05;20.00;;;13.00;;
60726;SDS011;46577;49.004;12.120;2023-06-22T01:59:35;23.57;;;13.03;;
60726;SDS011;46577;49.004;12.120;2023-06-22T02:02:04;23.95;;;13.65;;
60726;SDS011;46577;49.004;12.120;2023-06-22T02:04:40;16.40;;;12.33;;
60726;SDS011;46577;49.004;12.120;2023-06-22T02:07:11;20.13;;;13.10;;
60726;SDS011;46577;49.004;12.120;2023-06-22T02:09:38;19.37;;;13.73;;
60726;SDS011;46577;49.004;12.120;2023-06-22T02:12:04;17.30;;;13.67;;
60726;SDS011;46577;49.004;12.120;2023-06-22T02:14:31;24.70;;;13.20;;
60726;SDS011;46577;49.004;12.120;2023-06-22T02:16:57;22.17;;;13.03;;
60726;SDS011;46577;49.004;12.120;2023-06-22T02:19:26;30.63;;;13.33;;
60726;SDS011;46577;49.004;12.120;2023-06-22T02:21:52;17.77;;;13.20;;
60726;SDS011;46577;49.004;12.120;2023-06-22T02:24:18;20.50;;;13.70;;
60726;SDS011;46577;49.004;12.120;2023-06-22T02:26:48;25.93;;;13.53;;
60726;SDS011;46577;49.004;12.120;2023-06-22T02:29:14;19.80;;;14.70;;
60726;SDS011;46577;49.004;12.120;2023-06-22T02:31:40;19.47;;;14.20;;
60726;SDS011;46577;49.004;12.120;2023-06-22T02:34:06;33.50;;;14.30;;
60726;SDS011;46577;49.004;12.120;2023-06-22T02:36:32;18.93;;;13.60;;
60726;SDS011;46577;49.004;12.120;2023-06-22T02:38:58;22.80;;;14.07;;
60726;SDS011;46577;49.004;12.120;2023-06-22T02:41:26;18.10;;;13.33;;
60726;SDS011;46577;49.004;12.120;2023-06-22T02:43:52;21.77;;;13.80;;
60726;SDS011;46577;49.004;12.120;2023-06-22T02:46:18;21.20;;;12.47;;
60726;SDS011;46577;49.004;12.120;2023-06-22T02:48:44;16.77;;;12.97;;
60726;SDS011;46577;49.004;12.120;2023-06-22T02:51:10;19.67;;;13.30;;
60726;SDS011;46577;49.004;12.120;2023-06-22T02:53:36;28.50;;;14.37;;
60726;SDS011;46577;49.004;12.120;2023-06-22T02:56:02;21.43;;;14.27;;
60726;SDS011;46577;49.004;12.120;2023-06-22T02:58:30;23.57;;;13.87;;
60726;SDS011;46577;49.004;12.120;2023-06-22T03:00:58;23.40;;;13.03;;
60726;SDS011;46577;49.004;12.120;2023-06-22T03:03:29;20.13;;;12.20;;
60726;SDS011;46577;49.004;12.120;2023-06-22T03:05:55;20.43;;;13.00;;
60726;SDS011;46577;49.004;12.120;2023-06-22T03:08:21;23.53;;;13.77;;
60726;SDS011;46577;49.004;12.120;2023-06-22T03:10:47;18.20;;;14.00;;
60726;SDS011;46577;49.004;12.120;2023-06-22T03:13:13;17.40;;;14.03;;
60726;SDS011;46577;49.004;12.120;2023-06-22T03:15:39;26.97;;;13.57;;
60726;SDS011;46577;49.004;12.120;2023-06-22T03:18:05;17.20;;;13.40;;
60726;SDS011;46577;49.004;12.120;2023-06-22T03:20:31;29.60;;;13.83;;
60726;SDS011;46577;49.004;12.120;2023-06-22T03:22:58;28.40;;;15.53;;
60726;SDS011;46577;49.004;12.120;2023-06-22T03:25:24;25.63;;;15.37;;
60726;SDS011;46577;49.004;12.120;2023-06-22T03:27:50;26.33;;;14.17;;
60726;SDS011;46577;49.004;12.120;2023-06-22T03:30:16;22.87;;;13.63;;
60726;SDS011;46577;49.004;12.120;2023-06-22T03:32:42;23.47;;;15.30;;
60726;SDS011;46577;49.004;12.120;2023-06-22T03:35:08;22.10;;;14.43;;
60726;SDS011;46577;49.004;12.120;2023-06-22T03:37:35;29.47;;;15.37;;
60726;SDS011;46577;49.004;12.120;2023-06-22T03:40:01;19.17;;;14.17;;
60726;SDS011;46577;49.004;12.120;2023-06-22T03:42:30;23.13;;;15.80;;
60726;SDS011;46577;49.004;12.120;2023-06-22T03:44:56;21.07;;;13.50;;
60726;SDS011;46577;49.004;12.120;2023-06-22T03:47:22;17.00;;;12.87;;
60726;SDS011;46577;49.004;12.120;2023-06-22T03:49:48;18.70;;;14.37;;
60726;SDS011;46577;49.004;12.120;2023-06-22T03:52:14;22.13;;;14.63;;
60726;SDS011;46577;49.004;12.120;2023-06-22T03:54:40;19.17;;;14.70;;
60726;SDS011;46577;49.004;12.120;2023-06-22T03:57:06;17.87;;;13.20;;
60726;SDS011;46577;49.004;12.120;2023-06-22T03:59:32;15.40;;;12.43;;
60726;SDS011;46577;49.004;12.120;2023-06-22T04:01:58;17.03;;;11.87;;
60726;SDS011;46577;49.004;12.120;2023-06-22T04:04:24;21.17;;;13.07;;
60726;SDS011;46577;49.004;12.120;2023-06-22T04:06:50;20.70;;;12.93;;
60726;SDS011;46577;49.004;12.120;2023-06-22T04:09:16;18.90;;;13.93;;
60726;SDS011;46577;49.004;12.120;2023-06-22T04:11:42;15.83;;;12.37;;
60726;SDS011;46577;49.004;12.120;2023-06-22T04:14:08;18.77;;;12.20;;
60726;SDS011;46577;49.004;12.120;2023-06-22T04:16:34;21.80;;;11.57;;
60726;SDS011;46577;49.004;12.120;2023-06-22T04:19:00;14.60;;;12.13;;
60726;SDS011;46577;49.004;12.120;2023-06-22T04:21:26;18.30;;;12.30;;
60726;SDS011;46577;49.004;12.120;2023-06-22T04:23:52;15.60;;;11.53;;
60726;SDS011;46577;49.004;12.120;2023-06-22T04:26:18;23.53;;;14.67;;
60726;SDS011;46577;49.004;12.120;2023-06-22T04:28:45;18.60;;;11.80;;
60726;SDS011;46577;49.004;12.120;2023-06-22T04:31:16;19.70;;;12.13;;
60726;SDS011;46577;49.004;12.120;2023-06-22T04:33:44;16.00;;;11.20;;
60726;SDS011;46577;49.004;12.120;2023-06-22T04:36:10;23.20;;;10.97;;
60726;SDS011;46577;49.004;12.120;2023-06-22T04:38:38;13.60;;;10.77;;
60726;SDS011;46577;49.004;12.120;2023-06-22T04:41:04;16.10;;;11.23;;
60726;SDS011;46577;49.004;12.120;2023-06-22T04:43:31;13.90;;;10.47;;
60726;SDS011;46577;49.004;12.120;2023-06-22T04:45:57;11.20;;;10.00;;
60726;SDS011;46577;49.004;12.120;2023-06-22T04:48:28;14.50;;;10.67;;
60726;SDS011;46577;49.004;12.120;2023-06-22T04:50:57;12.13;;;10.10;;
60726;SDS011;46577;49.004;12.120;2023-06-22T04:53:29;16.47;;;9.83;;
60726;SDS011;46577;49.004;12.120;2023-06-22T04:55:55;16.07;;;10.60;;
60726;SDS011;46577;49.004;12.120;2023-06-22T04:58:21;12.77;;;9.50;;
60726;SDS011;46577;49.004;12.120;2023-06-22T05:00:47;14.27;;;10.70;;
60726;SDS011;46577;49.004;12.120;2023-06-22T05:03:16;17.00;;;10.47;;
60726;SDS011;46577;49.004;12.120;2023-06-22T05:05:43;13.27;;;10.40;;
60726;SDS011;46577;49.004;12.120;2023-06-22T05:08:09;16.73;;;10.30;;
60726;SDS011;46577;49.004;12.120;2023-06-22T05:10:35;11.83;;;9.90;;
60726;SDS011;46577;49.004;12.120;2023-06-22T05:13:01;12.43;;;9.67;;
60726;SDS011;46577;49.004;12.120;2023-06-22T05:15:27;17.00;;;9.17;;
60726;SDS011;46577;49.004;12.120;2023-06-22T05:17:55;16.67;;;9.10;;
60726;SDS011;46577;49.004;12.120;2023-06-22T05:20:21;10.07;;;9.00;;
60726;SDS011;46577;49.004;12.120;2023-06-22T05:22:47;12.17;;;9.17;;
60726;SDS011;46577;49.004;12.120;2023-06-22T05:25:13;10.33;;;8.50;;
60726;SDS011;46577;49.004;12.120;2023-06-22T05:27:39;10.70;;;9.40;;
60726;SDS011;46577;49.004;12.120;2023-06-22T05:30:08;12.70;;;10.10;;
60726;SDS011;46577;49.004;12.120;2023-06-22T05:32:34;11.53;;;9.30;;
60726;SDS011;46577;49.004;12.120;2023-06-22T05:35:01;10.43;;;9.17;;
60726;SDS011;46577;49.004;12.120;2023-06-22T05:37:27;11.93;;;10.00;;
60726;SDS011;46577;49.004;12.120;2023-06-22T05:39:53;10.20;;;8.77;;
60726;SDS011;46577;49.004;12.120;2023-06-22T05:42:20;11.33;;;8.43;;
60726;SDS011;46577;49.004;12.120;2023-06-22T05:44:46;10.27;;;9.20;;
60726;SDS011;46577;49.004;12.120;2023-06-22T05:47:12;11.70;;;8.70;;
60726;SDS011;46577;49.004;12.120;2023-06-22T05:49:38;10.97;;;8.47;;
60726;SDS011;46577;49.004;12.120;2023-06-22T05:52:04;9.63;;;8.07;;
60726;SDS011;46577;49.004;12.120;2023-06-22T05:54:30;13.23;;;9.40;;
60726;SDS011;46577;49.004;12.120;2023-06-22T05:56:56;9.90;;;7.90;;
60726;SDS011;46577;49.004;12.120;2023-06-22T05:59:22;11.27;;;8.20;;
60726;SDS011;46577;49.004;12.120;2023-06-22T06:01:48;11.40;;;9.20;;
60726;SDS011;46577;49.004;12.120;2023-06-22T06:04:18;11.00;;;8.03;;
60726;SDS011;46577;49.004;12.120;2023-06-22T06:06:44;10.10;;;8.23;;
60726;SDS011;46577;49.004;12.120;2023-06-22T06:09:11;12.63;;;7.90;;
60726;SDS011;46577;49.004;12.120;2023-06-22T06:11:37;8.90;;;7.40;;
60726;SDS011;46577;49.004;12.120;2023-06-22T06:14:03;11.10;;;8.43;;
60726;SDS011;46577;49.004;12.120;2023-06-22T06:16:29;10.43;;;8.03;;
60726;SDS011;46577;49.004;12.120;2023-06-22T06:18:55;11.37;;;7.40;;
60726;SDS011;46577;49.004;12.120;2023-06-22T06:21:23;9.70;;;6.80;;
60726;SDS011;46577;49.004;12.120;2023-06-22T06:23:49;7.53;;;6.10;;
60726;SDS011;46577;49.004;12.120;2023-06-22T06:26:15;8.03;;;5.87;;
60726;SDS011;46577;49.004;12.120;2023-06-22T06:28:42;8.73;;;6.27;;
60726;SDS011;46577;49.004;12.120;2023-06-22T06:31:08;7.73;;;5.83;;
60726;SDS011;46577;49.004;12.120;2023-06-22T06:33:34;5.53;;;5.03;;
60726;SDS011;46577;49.004;12.120;2023-06-22T06:36:00;6.03;;;5.40;;
60726;SDS011;46577;49.004;12.120;2023-06-22T06:38:28;6.25;;;5.68;;
60726;SDS011;46577;49.004;12.120;2023-06-22T06:40:54;7.22;;;5.15;;
60726;SDS011;46577;49.004;12.120;2023-06-22T06:43:20;5.18;;;4.68;;
60726;SDS011;46577;49.004;12.120;2023-06-22T06:45:47;7.30;;;5.03;;
60726;SDS011;46577;49.004;12.120;2023-06-22T06:48:13;6.85;;;4.53;;
60726;SDS011;46577;49.004;12.120;2023-06-22T06:50:39;10.38;;;4.20;;
60726;SDS011;46577;49.004;12.120;2023-06-22T06:53:05;11.90;;;4.28;;
60726;SDS011;46577;49.004;12.120;2023-06-22T06:55:31;7.35;;;4.65;;
60726;SDS011;46577;49.004;12.120;2023-06-22T06:58:00;4.30;;;3.88;;
60726;SDS011;46577;49.004;12.120;2023-06-22T07:00:26;4.75;;;3.85;;
60726;SDS011;46577;49.004;12.120;2023-06-22T07:02:52;5.15;;;4.28;;
60726;SDS011;46577;49.004;12.120;2023-06-22T07:05:18;4.15;;;3.75;;
60726;SDS011;46577;49.004;12.120;2023-06-22T07:07:44;4.70;;;4.30;;
60726;SDS011;46577;49.004;12.120;2023-06-22T07:10:10;6.65;;;3.70;;
60726;SDS011;46577;49.004;12.120;2023-06-22T07:12:36;3.63;;;3.15;;
60726;SDS011;46577;49.004;12.120;2023-06-22T07:15:04;5.38;;;3.38;;
60726;SDS011;46577;49.004;12.120;2023-06-22T07:17:30;7.85;;;3.08;;
60726;SDS011;46577;49.004;12.120;2023-06-22T07:19:56;7.78;;;3.05;;
60726;SDS011;46577;49.004;12.120;2023-06-22T07:22:22;3.78;;;3.10;;
60726;SDS011;46577;49.004;12.120;2023-06-22T07:24:48;8.45;;;2.90;;
60726;SDS011;46577;49.004;12.120;2023-06-22T07:27:15;3.65;;;3.25;;
60726;SDS011;46577;49.004;12.120;2023-06-22T07:29:44;6.43;;;3.28;;
60726;SDS011;46577;49.004;12.120;2023-06-22T07:32:10;7.00;;;3.28;;
60726;SDS011;46577;49.004;12.120;2023-06-22T07:34:36;4.28;;;2.55;;
60726;SDS011;46577;49.004;12.120;2023-06-22T07:37:02;7.60;;;3.08;;
60726;SDS011;46577;49.004;12.120;2023-06-22T07:39:29;9.30;;;2.88;;
60726;SDS011;46577;49.004;12.120;2023-06-22T07:41:55;4.60;;;2.60;;
60726;SDS011;46577;49.004;12.120;2023-06-22T07:44:21;7.15;;;3.15;;
60726;SDS011;46577;49.004;12.120;2023-06-22T07:46:47;3.35;;;2.90;;
60726;SDS011;46577;49.004;12.120;2023-06-22T07:49:13;5.47;;;2.53;;
60726;SDS011;46577;49.004;12.120;2023-06-22T07:51:39;4.78;;;2.47;;
60726;SDS011;46577;49.004;12.120;2023-06-22T07:54:05;4.53;;;2.90;;
60726;SDS011;46577;49.004;12.120;2023-06-22T07:56:32;4.28;;;2.55;;
60726;SDS011;46577;49.004;12.120;2023-06-22T07:58:58;7.80;;;2.13;;
60726;SDS011;46577;49.004;12.120;2023-06-22T08:01:25;3.92;;;2.60;;
60726;SDS011;46577;49.004;12.120;2023-06-22T08:03:51;5.20;;;2.42;;
60726;SDS011;46577;49.004;12.120;2023-06-22T08:06:17;4.43;;;2.20;;
60726;SDS011;46577;49.004;12.120;2023-06-22T08:08:43;4.45;;;2.63;;
60726;SDS011;46577;49.004;12.120;2023-06-22T08:11:12;3.55;;;2.60;;
60726;SDS011;46577;49.004;12.120;2023-06-22T08:13:38;8.05;;;2.85;;
60726;SDS011;46577;49.004;12.120;2023-06-22T08:16:04;6.28;;;2.90;;
60726;SDS011;46577;49.004;12.120;2023-06-22T08:18:32;6.45;;;3.50;;
60726;SDS011;46577;49.004;12.120;2023-06-22T08:20:58;5.13;;;2.45;;
60726;SDS011;46577;49.004;12.120;2023-06-22T08:23:24;6.82;;;3.22;;
60726;SDS011;46577;49.004;12.120;2023-06-22T08:25:50;7.05;;;3.20;;
60726;SDS011;46577;49.004;12.120;2023-06-22T08:28:16;6.65;;;3.78;;
60726;SDS011;46577;49.004;12.120;2023-06-22T08:30:42;3.80;;;3.20;;
60726;SDS011;46577;49.004;12.120;2023-06-22T08:33:08;8.35;;;3.22;;
60726;SDS011;46577;49.004;12.120;2023-06-22T08:35:34;5.53;;;3.00;;
60726;SDS011;46577;49.004;12.120;2023-06-22T08:38:00;5.75;;;3.90;;
60726;SDS011;46577;49.004;12.120;2023-06-22T08:40:27;19.90;;;3.33;;
60726;SDS011;46577;49.004;12.120;2023-06-22T08:42:54;12.23;;;3.33;;
60726;SDS011;46577;49.004;12.120;2023-06-22T08:45:20;7.28;;;2.90;;
60726;SDS011;46577;49.004;12.120;2023-06-22T08:47:46;5.50;;;3.20;;
60726;SDS011;46577;49.004;12.120;2023-06-22T08:50:12;6.32;;;2.55;;
60726;SDS011;46577;49.004;12.120;2023-06-22T08:52:38;7.15;;;2.72;;
60726;SDS011;46577;49.004;12.120;2023-06-22T08:55:08;7.88;;;3.38;;
60726;SDS011;46577;49.004;12.120;2023-06-22T08:57:34;6.30;;;2.95;;
60726;SDS011;46577;49.004;12.120;2023-06-22T09:00:03;9.45;;;3.10;;
60726;SDS011;46577;49.004;12.120;2023-06-22T09:02:30;9.68;;;3.58;;
60726;SDS011;46577;49.004;12.120;2023-06-22T09:04:56;4.18;;;3.28;;
60726;SDS011;46577;49.004;12.120;2023-06-22T09:07:23;3.90;;;3.28;;
60726;SDS011;46577;49.004;12.120;2023-06-22T09:09:49;3.58;;;2.75;;
60726;SDS011;46577;49.004;12.120;2023-06-22T09:12:16;3.90;;;2.75;;
60726;SDS011;46577;49.004;12.120;2023-06-22T09:14:42;7.05;;;2.65;;
60726;SDS011;46577;49.004;12.120;2023-06-22T09:17:08;6.82;;;2.78;;
60726;SDS011;46577;49.004;12.120;2023-06-22T09:19:34;3.78;;;2.80;;
60726;SDS011;46577;49.004;12.120;2023-06-22T09:22:00;4.63;;;2.85;;
60726;SDS011;46577;49.004;12.120;2023-06-22T09:24:26;5.28;;;2.58;;
60726;SDS011;46577;49.004;12.120;2023-06-22T09:26:52;7.32;;;2.95;;
60726;SDS011;46577;49.004;12.120;2023-06-22T09:29:18;4.97;;;2.83;;
60726;SDS011;46577;49.004;12.120;2023-06-22T09:31:43;6.00;;;3.40;;
60726;SDS011;46577;49.004;12.120;2023-06-22T09:34:10;6.43;;;3.30;;
60726;SDS011;46577;49.004;12.120;2023-06-22T09:36:35;7.95;;;3.35;;
60726;SDS011;46577;49.004;12.120;2023-06-22T09:39:04;8.48;;;3.08;;
60726;SDS011;46577;49.004;12.120;2023-06-22T09:41:31;6.35;;;2.60;;
60726;SDS011;46577;49.004;12.120;2023-06-22T09:43:57;4.75;;;2.70;;
60726;SDS011;46577;49.004;12.120;2023-06-22T09:46:23;4.57;;;3.08;;
60726;SDS011;46577;49.004;12.120;2023-06-22T09:48:53;5.22;;;2.50;;
60726;SDS011;46577;49.004;12.120;2023-06-22T09:51:19;8.57;;;3.70;;
60726;SDS011;46577;49.004;12.120;2023-06-22T09:53:46;5.60;;;2.47;;
60726;SDS011;46577;49.004;12.120;2023-06-22T09:56:13;3.47;;;2.60;;
60726;SDS011;46577;49.004;12.120;2023-06-22T09:58:42;6.35;;;2.72;;
60726;SDS011;46577;49.004;12.120;2023-06-22T10:01:08;4.05;;;2.78;;
60726;SDS011;46577;49.004;12.120;2023-06-22T10:03:35;4.15;;;2.60;;
60726;SDS011;46577;49.004;12.120;2023-06-22T10:06:01;4.60;;;2.92;;
60726;SDS011;46577;49.004;12.120;2023-06-22T10:08:27;7.13;;;2.78;;
60726;SDS011;46577;49.004;12.120;2023-06-22T10:10:53;5.47;;;2.65;;
60726;SDS011;46577;49.004;12.120;2023-06-22T10:13:19;9.40;;;2.70;;
60726;SDS011;46577;49.004;12.120;2023-06-22T10:15:45;4.13;;;2.42;;
60726;SDS011;46577;49.004;12.120;2023-06-22T10:18:16;4.97;;;2.20;;
60726;SDS011;46577;49.004;12.120;2023-06-22T10:20:42;7.90;;;2.83;;
60726;SDS011;46577;49.004;12.120;2023-06-22T10:23:09;4.40;;;2.40;;
60726;SDS011;46577;49.004;12.120;2023-06-22T10:25:35;11.52;;;2.33;;
60726;SDS011;46577;49.004;12.120;2023-06-22T10:28:01;6.13;;;2.70;;
60726;SDS011;46577;49.004;12.120;2023-06-22T10:30:26;7.97;;;2.13;;
60726;SDS011;46577;49.004;12.120;2023-06-22T10:32:54;10.40;;;2.83;;
60726;SDS011;46577;49.004;12.120;2023-06-22T10:35:20;4.43;;;2.08;;
60726;SDS011;46577;49.004;12.120;2023-06-22T10:37:46;4.15;;;2.35;;
60726;SDS011;46577;49.004;12.120;2023-06-22T10:40:12;4.88;;;2.28;;
60726;SDS011;46577;49.004;12.120;2023-06-22T10:42:39;4.25;;;2.40;;
60726;SDS011;46577;49.004;12.120;2023-06-22T10:45:05;4.05;;;2.28;;
60726;SDS011;46577;49.004;12.120;2023-06-22T10:47:31;3.35;;;2.50;;
60726;SDS011;46577;49.004;12.120;2023-06-22T10:49:57;5.07;;;2.78;;
60726;SDS011;46577;49.004;12.120;2023-06-22T10:52:23;3.90;;;2.60;;
60726;SDS011;46577;49.004;12.120;2023-06-22T10:54:49;5.75;;;2.65;;
60726;SDS011;46577;49.004;12.120;2023-06-22T10:57:15;5.38;;;2.85;;
60726;SDS011;46577;49.004;12.120;2023-06-22T10:59:41;5.43;;;2.78;;
60726;SDS011;46577;49.004;12.120;2023-06-22T11:02:07;8.25;;;3.10;;
60726;SDS011;46577;49.004;12.120;2023-06-22T11:04:33;4.97;;;2.65;;
60726;SDS011;46577;49.004;12.120;2023-06-22T11:06:59;6.65;;;3.75;;
60726;SDS011;46577;49.004;12.120;2023-06-22T11:09:25;6.90;;;3.33;;
60726;SDS011;46577;49.004;12.120;2023-06-22T11:11:51;5.13;;;3.47;;
60726;SDS011;46577;49.004;12.120;2023-06-22T11:14:20;5.18;;;3.47;;
60726;SDS011;46577;49.004;12.120;2023-06-22T11:16:47;8.13;;;3.85;;
60726;SDS011;46577;49.004;12.120;2023-06-22T11:19:13;10.73;;;4.25;;
60726;SDS011;46577;49.004;12.120;2023-06-22T11:21:39;7.47;;;4.22;;
60726;SDS011;46577;49.004;12.120;2023-06-22T11:24:05;27.10;;;5.20;;
60726;SDS011;46577;49.004;12.120;2023-06-22T11:26:31;15.55;;;4.80;;
60726;SDS011;46577;49.004;12.120;2023-06-22T11:28:58;9.50;;;4.53;;
60726;SDS011;46577;49.004;12.120;2023-06-22T11:31:24;8.63;;;4.10;;
60726;SDS011;46577;49.004;12.120;2023-06-22T11:33:50;9.27;;;4.60;;
60726;SDS011;46577;49.004;12.120;2023-06-22T11:36:16;8.37;;;5.23;;
60726;SDS011;46577;49.004;12.120;2023-06-22T11:38:42;8.60;;;4.70;;
60726;SDS011;46577;49.004;12.120;2023-06-22T11:41:09;11.70;;;4.70;;
60726;SDS011;46577;49.004;12.120;2023-06-22T11:43:35;11.13;;;5.40;;
60726;SDS011;46577;49.004;12.120;2023-06-22T11:46:05;16.67;;;5.33;;
60726;SDS011;46577;49.004;12.120;2023-06-22T11:48:31;8.10;;;5.27;;
60726;SDS011;46577;49.004;12.120;2023-06-22T11:50:57;10.77;;;5.50;;
60726;SDS011;46577;49.004;12.120;2023-06-22T11:53:25;9.43;;;5.20;;
60726;SDS011;46577;49.004;12.120;2023-06-22T11:55:51;11.03;;;5.27;;
60726;SDS011;46577;49.004;12.120;2023-06-22T11:58:19;22.40;;;5.93;;
60726;SDS011;46577;49.004;12.120;2023-06-22T12:00:45;8.90;;;4.83;;
60726;SDS011;46577;49.004;12.120;2023-06-22T12:03:11;12.30;;;5.90;;
60726;SDS011;46577;49.004;12.120;2023-06-22T12:05:37;7.90;;;5.23;;
60726;SDS011;46577;49.004;12.120;2023-06-22T12:08:03;7.93;;;4.87;;
60726;SDS011;46577;49.004;12.120;2023-06-22T12:10:29;11.10;;;5.90;;
60726;SDS011;46577;49.004;12.120;2023-06-22T12:12:55;10.87;;;4.77;;
60726;SDS011;46577;49.004;12.120;2023-06-22T12:15:25;10.73;;;4.93;;
60726;SDS011;46577;49.004;12.120;2023-06-22T12:17:51;8.60;;;6.00;;
60726;SDS011;46577;49.004;12.120;2023-06-22T12:20:17;12.30;;;5.53;;
60726;SDS011;46577;49.004;12.120;2023-06-22T12:22:43;11.83;;;5.37;;
60726;SDS011;46577;49.004;12.120;2023-06-22T12:25:10;12.07;;;5.07;;
60726;SDS011;46577;49.004;12.120;2023-06-22T12:27:36;12.90;;;5.00;;
60726;SDS011;46577;49.004;12.120;2023-06-22T12:30:02;18.37;;;6.30;;
60726;SDS011;46577;49.004;12.120;2023-06-22T12:32:28;11.77;;;5.90;;
60726;SDS011;46577;49.004;12.120;2023-06-22T12:34:55;13.27;;;5.47;;
60726;SDS011;46577;49.004;12.120;2023-06-22T12:37:21;13.53;;;5.80;;
60726;SDS011;46577;49.004;12.120;2023-06-22T12:39:47;10.90;;;5.17;;
60726;SDS011;46577;49.004;12.120;2023-06-22T12:42:13;10.77;;;5.20;;
60726;SDS011;46577;49.004;12.120;2023-06-22T12:44:39;11.10;;;5.60;;
60726;SDS011;46577;49.004;12.120;2023-06-22T12:47:06;10.03;;;5.90;;
60726;SDS011;46577;49.004;12.120;2023-06-22T12:49:33;10.87;;;4.80;;
60726;SDS011;46577;49.004;12.120;2023-06-22T12:51:59;14.37;;;7.17;;
60726;SDS011;46577;49.004;12.120;2023-06-22T12:54:25;23.53;;;5.20;;
60726;SDS011;46577;49.004;12.120;2023-06-22T12:56:51;8.80;;;4.23;;
60726;SDS011;46577;49.004;12.120;2023-06-22T12:59:17;10.77;;;5.27;;
60726;SDS011;46577;49.004;12.120;2023-06-22T13:01:43;28.30;;;5.57;;
60726;SDS011;46577;49.004;12.120;2023-06-22T13:04:10;11.37;;;5.43;;
60726;SDS011;46577;49.004;12.120;2023-06-22T13:06:39;8.87;;;5.47;;
60726;SDS011;46577;49.004;12.120;2023-06-22T13:09:05;9.37;;;5.97;;
60726;SDS011;46577;49.004;12.120;2023-06-22T13:11:31;17.77;;;5.73;;
60726;SDS011;46577;49.004;12.120;2023-06-22T13:13:57;12.10;;;4.90;;
60726;SDS011;46577;49.004;12.120;2023-06-22T13:16:23;13.77;;;6.10;;
60726;SDS011;46577;49.004;12.120;2023-06-22T13:18:49;13.50;;;4.73;;
60726;SDS011;46577;49.004;12.120;2023-06-22T13:21:15;8.67;;;4.87;;
60726;SDS011;46577;49.004;12.120;2023-06-22T13:23:41;11.57;;;4.60;;
60726;SDS011;46577;49.004;12.120;2023-06-22T13:26:07;17.00;;;5.57;;
60726;SDS011;46577;49.004;12.120;2023-06-22T13:28:33;10.87;;;5.30;;
60726;SDS011;46577;49.004;12.120;2023-06-22T13:30:59;13.60;;;5.50;;
60726;SDS011;46577;49.004;12.120;2023-06-22T13:33:25;11.07;;;5.40;;
60726;SDS011;46577;49.004;12.120;2023-06-22T13:35:51;12.63;;;5.40;;
60726;SDS011;46577;49.004;12.120;2023-06-22T13:38:17;15.70;;;5.43;;
60726;SDS011;46577;49.004;12.120;2023-06-22T13:40:43;11.97;;;5.40;;
60726;SDS011;46577;49.004;12.120;2023-06-22T13:43:09;19.07;;;6.13;;
60726;SDS011;46577;49.004;12.120;2023-06-22T13:45:35;14.23;;;4.80;;
60726;SDS011;46577;49.004;12.120;2023-06-22T13:48:01;9.17;;;5.20;;
60726;SDS011;46577;49.004;12.120;2023-06-22T13:50:27;6.80;;;5.07;;
60726;SDS011;46577;49.004;12.120;2023-06-22T13:52:54;9.20;;;5.70;;
60726;SDS011;46577;49.004;12.120;2023-06-22T13:55:21;10.73;;;5.30;;
60726;SDS011;46577;49.004;12.120;2023-06-22T13:57:48;13.90;;;5.50;;
60726;SDS011;46577;49.004;12.120;2023-06-22T14:00:14;8.33;;;4.50;;
60726;SDS011;46577;49.004;12.120;2023-06-22T14:02:40;17.37;;;5.50;;
60726;SDS011;46577;49.004;12.120;2023-06-22T14:05:07;11.07;;;5.47;;
60726;SDS011;46577;49.004;12.120;2023-06-22T14:07:33;26.50;;;6.60;;
60726;SDS011;46577;49.004;12.120;2023-06-22T14:09:59;17.97;;;5.90;;
60726;SDS011;46577;49.004;12.120;2023-06-22T14:12:25;13.73;;;5.40;;
60726;SDS011;46577;49.004;12.120;2023-06-22T14:14:52;22.83;;;6.00;;
60726;SDS011;46577;49.004;12.120;2023-06-22T14:17:18;13.70;;;5.20;;
60726;SDS011;46577;49.004;12.120;2023-06-22T14:19:48;14.93;;;5.27;;